Time;durP1;ratioP1;P1;durP2;ratioP2;P2;SDS_P1;SDS_P2;PMS_P1;PMS_P2;Temp;Humidity;BMP_temperature;BMP_pressure;BME280_temperature;BME280_humidity;BME280_pressure;Samples;Min_cycle;Max_cycle;Signal;HPM_P1;HPM_P2
2022/12/24 00:01:57;;;;;;;21.13;3.78;;;14.50;99.90;;;;;;5029567;28;20049;-80
2022/12/24 00:04:23;;;;;;;20.92;3.38;;;14.50;99.90;;;;;;5016036;28;20074;-78
2022/12/24 00:06:50;;;;;;;19.40;4.50;;;14.50;99.90;;;;;;5015548;28;20205;-81
2022/12/24 00:09:22;;;;;;;15.38;3.60;;;14.40;99.90;;;;;;5034654;28;20290;-80
2022/12/24 00:11:49;;;;;;;23.10;3.75;;;14.40;99.90;;;;;;5019980;28;20026;-77
2022/12/24 00:14:25;;;;;;;16.92;4.03;;;14.40;99.90;;;;;;5042699;23;20050;-80
2022/12/24 00:17:02;;;;;;;23.60;4.55;;;14.40;99.90;;;;;;5009109;28;20131;-80
2022/12/24 00:19:28;;;;;;;24.38;3.95;;;14.40;99.90;;;;;;5030915;28;20030;-79
2022/12/24 00:21:56;;;;;;;18.40;3.63;;;14.50;99.90;;;;;;5013550;28;20054;-80
2022/12/24 00:24:28;;;;;;;19.60;3.50;;;14.50;99.90;;;;;;5018868;28;20464;-80
2022/12/24 00:26:54;;;;;;;21.05;3.85;;;14.50;99.90;;;;;;5017963;28;20059;-81
2022/12/24 00:29:20;;;;;;;;;;;14.50;99.90;;;;;;5014532;28;20030;-81
2022/12/24 00:31:46;;;;;;;17.65;3.30;;;14.60;99.90;;;;;;5021329;28;19909;-80
2022/12/24 00:34:28;;;;;;;;;;;14.60;99.90;;;;;;5018689;28;20030;-80
2022/12/24 00:36:54;;;;;;;23.83;4.10;;;14.60;99.90;;;;;;5020671;28;20067;-80
2022/12/24 00:39:20;;;;;;;17.77;3.57;;;14.60;99.90;;;;;;5034012;28;20049;-81
2022/12/24 00:41:46;;;;;;;17.33;3.20;;;14.60;99.90;;;;;;5033852;28;20096;-83
2022/12/24 00:44:30;;;;;;;18.95;3.40;;;14.60;99.90;;;;;;5018217;28;20027;-80
2022/12/24 00:46:56;;;;;;;19.50;3.53;;;14.60;99.90;;;;;;5005913;28;20033;-80
2022/12/24 00:49:23;;;;;;;24.23;3.65;;;14.60;99.90;;;;;;5023842;28;20103;-80
2022/12/24 00:51:50;;;;;;;14.40;2.83;;;14.60;99.90;;;;;;5034016;28;20031;-80
2022/12/24 00:54:31;;;;;;;;;;;14.60;99.90;;;;;;5027678;28;20296;-79
2022/12/24 00:56:58;;;;;;;16.67;3.03;;;14.60;99.90;;;;;;5013416;28;19917;-81
2022/12/24 00:59:25;;;;;;;16.15;3.30;;;14.60;99.90;;;;;;5013132;28;20074;-81
2022/12/24 01:01:51;;;;;;;16.35;3.05;;;14.60;99.90;;;;;;5021564;28;20053;-80
2022/12/24 01:07:25;;;;;;;24.48;3.90;;;14.60;99.90;;;;;;5031966;28;20117;-83
2022/12/24 01:09:51;;;;;;;20.33;3.88;;;14.50;99.90;;;;;;5034039;28;20052;-82
2022/12/24 01:12:17;;;;;;;22.48;3.72;;;14.50;99.90;;;;;;5027812;28;20030;-85
2022/12/24 01:14:45;;;;;;;21.38;3.10;;;14.50;99.90;;;;;;5008546;28;20371;-81
2022/12/24 01:17:13;;;;;;;23.92;3.72;;;14.50;99.90;;;;;;5009151;28;20042;-84
2022/12/24 01:19:40;;;;;;;19.48;3.28;;;14.60;99.90;;;;;;5013643;28;20033;-85
2022/12/24 01:22:06;;;;;;;22.52;3.40;;;14.60;99.90;;;;;;5004596;28;20030;-86
2022/12/24 01:24:43;;;;;;;14.93;3.15;;;14.50;99.90;;;;;;5021953;28;20065;-83
2022/12/24 01:27:10;;;;;;;17.15;3.17;;;14.50;99.90;;;;;;4977057;28;20375;-83
2022/12/24 01:29:39;;;;;;;18.35;3.33;;;14.50;99.90;;;;;;5022965;28;20080;-82
2022/12/24 01:32:08;;;;;;;19.75;4.05;;;14.50;99.90;;;;;;4993549;28;20045;-82
2022/12/24 01:34:39;;;;;;;24.10;4.25;;;14.50;99.90;;;;;;5001676;28;20574;-82
2022/12/24 01:37:10;;;;;;;25.30;3.72;;;14.50;99.90;;;;;;5013172;28;20042;-83
2022/12/24 01:43:22;;;;;;;16.27;3.47;;;14.50;99.90;;;;;;5022445;28;20129;-83
2022/12/24 01:45:53;;;;;;;19.23;3.63;;;14.50;99.90;;;;;;4999947;28;20135;-83
2022/12/24 01:48:37;;;;;;;22.80;3.50;;;14.50;99.90;;;;;;5025454;28;20087;-83
2022/12/24 01:51:14;;;;;;;17.48;3.10;;;14.50;99.90;;;;;;5016991;28;20037;-81
2022/12/24 01:53:42;;;;;;;;;;;14.60;99.90;;;;;;5033390;28;20048;-83
2022/12/24 01:56:11;;;;;;;18.83;3.15;;;14.50;99.90;;;;;;5013342;28;19944;-80
2022/12/24 01:58:42;;;;;;;22.00;4.07;;;14.50;99.90;;;;;;4995860;28;20084;-79
2022/12/24 02:01:10;;;;;;;19.15;3.60;;;14.50;99.90;;;;;;5012340;28;20022;-78
2022/12/24 02:03:38;;;;;;;21.05;3.85;;;14.60;99.90;;;;;;4994361;28;20037;-77
2022/12/24 02:06:15;;;;;;;21.73;4.13;;;14.60;99.90;;;;;;5010320;28;20026;-80
2022/12/24 02:08:48;;;;;;;21.20;3.85;;;14.60;99.90;;;;;;5012092;28;20026;-80
2022/12/24 02:11:20;;;;;;;19.98;3.53;;;14.60;99.90;;;;;;5025637;28;20044;-79
2022/12/24 02:13:56;;;;;;;28.67;4.30;;;14.60;99.90;;;;;;5009305;28;20030;-79
2022/12/24 02:16:59;;;;;;;32.88;4.85;;;14.60;99.90;;;;;;5029479;28;20065;-80
2022/12/24 02:20:02;;;;;;;34.35;4.85;;;14.50;99.90;;;;;;5030603;28;20045;-79
2022/12/24 02:23:08;;;;;;;26.20;5.22;;;14.50;99.90;;;;;;5012476;28;20026;-82
2022/12/24 02:26:02;;;;;;;19.63;4.18;;;14.50;99.90;;;;;;5037663;23;20061;-82
2022/12/24 02:28:39;;;;;;;25.77;5.00;;;14.50;99.90;;;;;;5030368;28;20104;-82
2022/12/24 02:31:38;;;;;;;23.70;4.93;;;14.50;99.90;;;;;;5031986;28;20121;-82
2022/12/24 02:37:38;;;;;;;25.77;4.63;;;14.40;99.90;;;;;;5012131;28;20112;-82
2022/12/24 02:40:17;;;;;;;23.13;3.90;;;14.40;99.90;;;;;;5027062;28;20041;-82
2022/12/24 02:42:49;;;;;;;21.73;4.10;;;14.40;99.90;;;;;;5031875;28;20097;-82
2022/12/24 02:45:39;;;;;;;30.05;4.43;;;14.40;99.90;;;;;;5024742;28;20035;-82
2022/12/24 02:48:07;;;;;;;20.10;3.90;;;14.40;99.90;;;;;;5030967;28;20157;-81
2022/12/24 02:50:34;;;;;;;17.40;3.40;;;14.50;99.90;;;;;;5012646;28;20061;-82
2022/12/24 02:53:01;;;;;;;16.02;3.42;;;14.50;99.90;;;;;;5031568;28;20097;-81
2022/12/24 02:56:04;;;;;;;11.80;2.75;;;14.60;99.90;;;;;;5033542;28;20488;-81
2022/12/24 02:59:02;;;;;;;15.75;3.33;;;14.70;99.90;;;;;;5030705;28;20044;-81
2022/12/24 03:01:56;;;;;;;19.95;3.67;;;14.70;99.90;;;;;;5027933;28;20045;-81
2022/12/24 03:05:01;;;;;;;23.75;3.20;;;14.70;99.90;;;;;;5034746;28;20040;-80
2022/12/24 03:07:37;;;;;;;24.90;3.95;;;14.70;99.90;;;;;;5031463;28;20040;-81
2022/12/24 03:10:03;;;;;;;22.23;3.53;;;14.60;99.90;;;;;;5044325;28;20330;-81
2022/12/24 03:12:43;;;;;;;20.40;4.17;;;14.60;99.90;;;;;;5040237;28;20029;-81
2022/12/24 03:15:15;;;;;;;22.42;3.92;;;14.50;99.90;;;;;;5038899;28;20117;-80
2022/12/24 03:18:05;;;;;;;26.75;4.53;;;14.50;99.90;;;;;;5011546;28;20046;-81
2022/12/24 03:21:22;;;;;;;22.27;4.10;;;14.50;99.90;;;;;;5015877;28;20013;-81
2022/12/24 03:23:50;;;;;;;27.85;5.00;;;14.50;99.90;;;;;;4940779;29;20039;-81
2022/12/24 03:26:18;;;;;;;24.15;4.00;;;14.50;99.90;;;;;;4941357;28;20055;-80
2022/12/24 03:28:46;;;;;;;24.30;4.15;;;14.40;99.90;;;;;;4932063;29;20514;-81
2022/12/24 03:31:14;;;;;;;19.35;4.53;;;14.40;99.90;;;;;;4932160;29;20039;-80
2022/12/24 03:33:41;;;;;;;25.58;4.18;;;14.40;99.90;;;;;;4944438;29;20035;-80
2022/12/24 03:36:10;;;;;;;29.48;4.95;;;14.40;99.90;;;;;;4949866;28;20039;-80
2022/12/24 03:38:38;;;;;;;31.23;4.82;;;14.30;99.90;;;;;;4960978;28;20082;-79
2022/12/24 03:41:26;;;;;;;22.98;4.50;;;14.30;99.90;;;;;;4970318;28;20360;-79
2022/12/24 03:43:52;;;;;;;23.23;4.38;;;14.30;99.90;;;;;;4939492;29;20039;-79
2022/12/24 03:46:37;;;;;;;27.33;3.85;;;14.30;99.90;;;;;;4936326;29;20159;-79
2022/12/24 03:49:06;;;;;;;20.63;4.13;;;14.30;99.90;;;;;;4915914;29;20036;-78
2022/12/24 03:51:32;;;;;;;25.88;4.13;;;14.20;99.90;;;;;;4932029;29;20042;-77
2022/12/24 03:56:34;;;;;;;23.65;4.15;;;14.30;99.90;;;;;;5028916;28;20655;-80
2022/12/24 03:59:02;;;;;;;20.65;4.38;;;14.20;99.90;;;;;;4983051;28;20091;-78
2022/12/24 04:01:37;;;;;;;21.52;4.18;;;14.20;99.90;;;;;;4996090;28;20057;-78
2022/12/24 04:04:03;;;;;;;24.63;4.33;;;14.20;99.90;;;;;;5039395;28;20057;-82
2022/12/24 04:06:40;;;;;;;17.53;3.83;;;14.20;99.90;;;;;;5031038;28;20750;-82
2022/12/24 04:09:08;;;;;;;28.15;5.10;;;14.20;99.90;;;;;;5051577;22;20103;-82
2022/12/24 04:11:34;;;;;;;21.02;3.72;;;14.20;99.90;;;;;;5012543;28;20036;-80
2022/12/24 04:14:00;;;;;;;17.42;3.75;;;14.20;99.90;;;;;;5031806;28;20026;-82
2022/12/24 04:16:51;;;;;;;21.27;3.67;;;14.20;99.90;;;;;;5030462;28;20030;-81
2022/12/24 04:19:51;;;;;;;15.18;3.20;;;14.20;99.90;;;;;;5032410;28;20340;-80
2022/12/24 04:22:18;;;;;;;20.73;3.83;;;14.20;99.90;;;;;;5043218;28;20067;-81
2022/12/24 04:24:54;;;;;;;21.35;3.78;;;14.20;99.90;;;;;;5034293;28;20025;-79
2022/12/24 04:27:35;;;;;;;21.02;3.80;;;14.20;99.90;;;;;;5034027;28;20029;-81
2022/12/24 04:30:05;;;;;;;14.93;3.65;;;14.20;99.90;;;;;;5034518;28;20480;-80
2022/12/24 04:32:37;;;;;;;21.05;4.10;;;14.20;99.90;;;;;;5034895;28;20033;-81
2022/12/24 04:35:26;;;;;;;17.20;3.72;;;14.20;99.90;;;;;;5034622;28;20025;-80
2022/12/24 04:37:56;;;;;;;20.90;3.78;;;14.20;99.90;;;;;;5034529;28;20074;-80
2022/12/24 04:40:22;;;;;;;15.82;3.28;;;14.20;99.90;;;;;;5016336;28;20120;-79
2022/12/24 04:42:51;;;;;;;18.47;3.70;;;14.20;99.90;;;;;;5034742;28;20021;-79
2022/12/24 04:45:19;;;;;;;14.75;3.13;;;14.20;99.90;;;;;;5044672;28;20280;-77
2022/12/24 04:47:45;;;;;;;17.85;3.20;;;14.20;99.90;;;;;;5034105;28;21836;-77
2022/12/24 04:50:11;;;;;;;21.63;3.58;;;14.20;99.90;;;;;;5034793;28;20032;-80
2022/12/24 04:52:37;;;;;;;13.20;3.13;;;14.20;99.90;;;;;;5050376;28;20481;-80
2022/12/24 04:55:04;;;;;;;15.48;3.55;;;14.20;99.90;;;;;;5028987;28;20045;-79
2022/12/24 04:57:33;;;;;;;16.85;3.70;;;14.20;99.90;;;;;;5032596;28;20032;-82
2022/12/24 05:00:01;;;;;;;19.10;3.50;;;14.20;99.90;;;;;;5035917;28;20025;-80
2022/12/24 05:02:31;;;;;;;17.08;3.35;;;14.20;99.90;;;;;;5034093;28;20024;-82
2022/12/24 05:04:57;;;;;;;16.20;3.53;;;14.20;99.90;;;;;;5032880;28;20485;-81
2022/12/24 05:07:23;;;;;;;19.30;3.03;;;14.20;99.90;;;;;;5033283;28;20037;-80
2022/12/24 05:09:52;;;;;;;18.03;3.37;;;14.30;99.90;;;;;;5032489;28;20042;-79
2022/12/24 05:12:19;;;;;;;17.27;3.20;;;14.30;99.90;;;;;;5033381;28;20278;-80
2022/12/24 05:14:46;;;;;;;16.17;3.10;;;14.30;99.90;;;;;;5031784;28;20029;-79
2022/12/24 05:17:13;;;;;;;21.75;3.50;;;14.30;99.90;;;;;;5031329;28;20033;-79
2022/12/24 05:19:41;;;;;;;19.48;3.45;;;14.30;99.90;;;;;;5034672;28;20037;-79
2022/12/24 05:27:38;;;;;;;14.52;3.05;;;14.30;99.90;;;;;;5035115;28;20032;-82
2022/12/24 05:30:05;;;;;;;13.23;2.72;;;14.30;99.90;;;;;;5016602;28;20151;-82
2022/12/24 05:32:43;;;;;;;16.30;2.92;;;14.30;99.90;;;;;;5034773;28;20049;-82
2022/12/24 05:35:49;;;;;;;14.07;2.70;;;14.40;99.90;;;;;;5036101;28;20013;-82
2022/12/24 05:38:15;;;;;;;17.50;2.70;;;14.40;99.90;;;;;;5019968;28;20067;-81
2022/12/24 05:40:48;;;;;;;19.45;3.17;;;14.40;99.90;;;;;;5043612;28;20033;-80
2022/12/24 05:43:14;;;;;;;16.73;3.60;;;14.40;99.90;;;;;;5035031;28;20076;-80
2022/12/24 05:45:41;;;;;;;15.97;3.10;;;14.50;99.90;;;;;;5033485;28;20021;-79
2022/12/24 05:48:13;;;;;;;16.25;3.03;;;14.50;99.90;;;;;;5046356;28;20283;-80
2022/12/24 05:50:41;;;;;;;12.65;2.67;;;14.40;99.90;;;;;;5050913;28;20034;-77
2022/12/24 05:53:08;;;;;;;15.30;2.55;;;14.40;99.90;;;;;;5052644;28;20131;-80
2022/12/24 05:55:35;;;;;;;17.90;3.00;;;14.40;99.90;;;;;;5049181;28;20432;-80
2022/12/24 05:58:01;;;;;;;13.23;2.63;;;14.40;99.90;;;;;;5033638;28;20292;-80
2022/12/24 06:00:27;;;;;;;17.15;2.95;;;14.40;99.90;;;;;;5040240;28;20093;-80
2022/12/24 06:02:53;;;;;;;18.58;2.92;;;14.30;99.90;;;;;;5032010;28;20147;-78
2022/12/24 06:05:20;;;;;;;;;;;14.30;99.90;;;;;;5049401;28;20037;-79
2022/12/24 06:07:48;;;;;;;17.95;2.90;;;14.30;99.90;;;;;;5030417;28;20360;-80
2022/12/24 06:10:15;;;;;;;17.70;2.72;;;14.30;99.90;;;;;;5049117;28;20107;-80
2022/12/24 06:12:42;;;;;;;11.40;2.80;;;14.40;99.90;;;;;;5046768;28;20040;-83
2022/12/24 06:15:08;;;;;;;21.17;3.10;;;14.30;99.90;;;;;;5037357;28;20060;-78
2022/12/24 06:17:37;;;;;;;18.92;2.70;;;14.40;99.90;;;;;;5033355;28;20037;-83
2022/12/24 06:20:05;;;;;;;16.17;3.03;;;14.40;99.90;;;;;;5033925;28;20030;-82
2022/12/24 06:22:32;;;;;;;12.90;2.85;;;14.40;99.90;;;;;;5033780;28;20060;-80
2022/12/24 06:24:59;;;;;;;14.75;2.70;;;14.40;99.90;;;;;;5027729;28;20440;-84
2022/12/24 06:27:33;;;;;;;11.57;2.70;;;14.50;99.90;;;;;;5033362;28;20017;-84
2022/12/24 06:30:08;;;;;;;17.88;2.95;;;14.50;99.90;;;;;;5033787;28;20056;-83
2022/12/24 06:32:34;;;;;;;13.45;2.63;;;14.60;99.90;;;;;;5029624;28;20033;-82
2022/12/24 06:35:00;;;;;;;15.23;2.73;;;14.60;99.90;;;;;;5030749;28;20681;-81
2022/12/24 06:38:02;;;;;;;13.47;2.90;;;14.70;99.90;;;;;;5013467;28;20296;-82
2022/12/24 06:40:33;;;;;;;16.88;3.35;;;14.80;99.90;;;;;;4948112;29;20358;-80
2022/12/24 06:42:59;;;;;;;16.15;3.17;;;14.80;99.90;;;;;;4952912;28;20377;-80
2022/12/24 06:45:29;;;;;;;16.50;2.73;;;14.80;99.90;;;;;;4952436;28;20049;-79
2022/12/24 06:48:01;;;;;;;16.23;2.83;;;14.90;99.90;;;;;;4953422;29;20035;-82
2022/12/24 06:50:27;;;;;;;12.43;3.15;;;15.10;99.90;;;;;;4969123;28;20172;-80
2022/12/24 06:52:55;;;;;;;16.88;2.80;;;15.30;99.90;;;;;;4952360;29;20527;-83
2022/12/24 06:55:51;;;;;;;15.88;3.30;;;15.80;99.90;;;;;;4952740;29;20111;-84
2022/12/24 06:58:18;;;;;;;13.77;2.70;;;16.50;99.90;;;;;;4969271;28;20090;-77
2022/12/24 07:00:46;;;;;;;15.90;2.83;;;17.50;99.90;;;;;;4966265;28;20081;-75
2022/12/24 07:03:12;;;;;;;15.85;3.00;;;18.10;99.90;;;;;;4954483;28;20039;-75
2022/12/24 07:05:41;;;;;;;11.75;2.70;;;18.50;99.90;;;;;;4951057;28;20031;-75
2022/12/24 07:08:10;;;;;;;11.88;2.67;;;19.30;99.90;;;;;;4935718;29;20069;-76
2022/12/24 07:10:36;;;;;;;11.70;3.17;;;19.50;99.90;;;;;;4952862;29;20035;-78
2022/12/24 07:13:09;;;;;;;14.18;3.15;;;19.30;99.90;;;;;;4952365;29;20049;-79
2022/12/24 07:15:44;;;;;;;14.23;3.35;;;18.80;99.90;;;;;;4951561;28;20549;-81
2022/12/24 07:18:13;;;;;;;10.90;2.38;;;18.70;99.90;;;;;;5010753;28;20072;-81
2022/12/24 07:20:43;;;;;;;13.25;3.15;;;18.90;99.90;;;;;;5022924;28;20022;-84
2022/12/24 07:23:10;;;;;;;14.63;2.72;;;18.90;99.90;;;;;;4995892;28;20025;-74
2022/12/24 07:25:36;;;;;;;12.05;2.90;;;19.20;99.90;;;;;;5028690;28;20025;-72
2022/12/24 07:30:27;;;;;;;15.57;3.33;;;20.00;99.90;;;;;;5063317;23;20474;-77
2022/12/24 07:32:57;;;;;;;14.00;3.25;;;20.40;99.90;;;;;;5033089;28;20085;-88
2022/12/24 07:35:24;;;;;;;13.88;2.92;;;20.80;99.90;;;;;;4999044;28;20022;-78
2022/12/24 07:38:32;;;;;;;18.55;3.38;;;20.90;99.90;;;;;;5013141;28;20038;-81
2022/12/24 07:41:35;;;;;;;14.70;3.22;;;20.70;99.90;;;;;;5014233;28;20366;-76
2022/12/24 07:44:52;;;;;;;7.75;2.33;;;20.70;99.90;;;;;;5029960;28;20033;-82
2022/12/24 07:47:53;;;;;;;16.27;2.92;;;20.90;99.90;;;;;;5023659;28;20083;-80
2022/12/24 07:50:19;;;;;;;15.13;2.70;;;20.70;99.90;;;;;;5031331;28;20025;-79
2022/12/24 07:52:46;;;;;;;11.75;2.95;;;20.00;99.90;;;;;;5032357;28;20021;-78
2022/12/24 07:56:15;;;;;;;18.70;3.75;;;20.10;99.90;;;;;;5032739;28;20034;-76
2022/12/24 07:59:34;;;;;;;15.35;2.58;;;19.60;99.90;;;;;;5036093;28;20033;-76
2022/12/24 08:02:42;;;;;;;13.30;2.28;;;19.30;99.90;;;;;;5016265;28;20496;-73
2022/12/24 08:05:19;;;;;;;11.23;2.53;;;18.90;99.90;;;;;;5015512;28;20448;-79
2022/12/24 08:07:46;;;;;;;14.85;2.65;;;18.70;99.90;;;;;;5015285;28;20507;-82
2022/12/24 08:10:12;;;;;;;14.00;2.80;;;18.70;99.90;;;;;;5017264;28;20022;-83
2022/12/24 08:13:01;;;;;;;12.38;2.30;;;18.50;99.90;;;;;;5017127;28;20037;-78
2022/12/24 08:15:49;;;;;;;16.15;2.40;;;18.60;99.90;;;;;;5016642;28;20068;-79
2022/12/24 08:19:21;;;;;;;11.95;2.67;;;18.70;99.90;;;;;;4998964;28;20033;-80
2022/12/24 08:22:26;;;;;;;13.98;2.85;;;19.00;99.90;;;;;;5016244;28;20022;-82
2022/12/24 08:24:52;;;;;;;9.43;2.15;;;19.20;99.90;;;;;;5029535;28;20021;-84
2022/12/24 08:27:20;;;;;;;11.40;3.58;;;18.90;99.90;;;;;;5032720;28;20029;-81
2022/12/24 08:29:49;;;;;;;12.95;2.65;;;18.70;99.90;;;;;;5025691;28;20037;-84
2022/12/24 08:32:24;;;;;;;11.48;2.70;;;18.70;99.90;;;;;;5033802;28;20029;-83
2022/12/24 08:34:54;;;;;;;13.95;3.08;;;18.80;99.90;;;;;;5034773;28;20041;-82
2022/12/24 08:37:20;;;;;;;14.70;2.50;;;19.00;99.90;;;;;;5035696;28;20033;-79
2022/12/24 08:39:46;;;;;;;8.68;2.72;;;19.20;99.90;;;;;;5036059;28;20033;-82
2022/12/24 08:42:24;;;;;;;12.70;3.25;;;19.40;99.90;;;;;;5035648;28;20017;-82
2022/12/24 08:44:50;;;;;;;15.23;3.30;;;19.60;99.90;;;;;;5035565;28;20032;-81
2022/12/24 08:47:23;;;;;;;14.43;3.90;;;19.40;99.90;;;;;;5017532;28;20112;-81
2022/12/24 08:49:49;;;;;;;18.35;5.78;;;19.60;99.90;;;;;;5034777;28;20488;-81
2022/12/24 08:52:15;;;;;;;14.18;3.40;;;19.60;99.90;;;;;;5035325;28;20522;-81
2022/12/24 08:54:42;;;;;;;21.45;3.78;;;19.70;99.90;;;;;;5034139;28;20042;-81
2022/12/24 08:57:09;;;;;;;12.40;3.42;;;19.60;99.90;;;;;;5035182;28;20484;-80
2022/12/24 08:59:37;;;;;;;;;;;19.60;99.90;;;;;;5035191;28;20037;-78
2022/12/24 09:02:03;;;;;;;14.10;2.85;;;19.50;99.90;;;;;;5034587;28;19948;-78
2022/12/24 09:04:30;;;;;;;16.75;2.88;;;19.50;99.90;;;;;;5035003;28;20029;-80
2022/12/24 09:06:56;;;;;;;14.68;2.95;;;19.40;99.90;;;;;;5034124;28;20022;-81
2022/12/24 09:09:22;;;;;;;15.90;3.05;;;19.50;99.90;;;;;;5034641;28;20034;-81
2022/12/24 09:11:50;;;;;;;11.68;3.28;;;19.50;99.90;;;;;;5034438;28;20077;-82
2022/12/24 09:14:17;;;;;;;13.45;3.67;;;19.80;99.90;;;;;;5017304;28;20108;-82
2022/12/24 09:16:43;;;;;;;10.40;3.00;;;19.90;99.90;;;;;;5034745;28;20082;-81
2022/12/24 09:19:09;;;;;;;13.43;3.35;;;19.90;99.90;;;;;;5034873;28;20040;-82
2022/12/24 09:21:36;;;;;;;16.65;3.75;;;20.20;99.90;;;;;;5035214;28;20018;-81
2022/12/24 09:24:03;;;;;;;13.02;3.67;;;20.40;99.90;;;;;;5034972;28;20025;-82
2022/12/24 09:26:30;;;;;;;12.10;3.28;;;20.60;99.90;;;;;;5033982;28;20014;-81
2022/12/24 09:29:24;;;;;;;13.93;2.92;;;20.40;99.90;;;;;;5034330;28;20481;-79
2022/12/24 09:31:50;;;;;;;12.43;3.13;;;20.30;99.90;;;;;;5035213;28;20029;-80
2022/12/24 09:34:17;;;;;;;11.32;2.92;;;20.40;99.90;;;;;;5033912;28;20018;-80
2022/12/24 09:36:45;;;;;;;13.95;3.45;;;20.30;99.90;;;;;;5034483;28;20044;-80
2022/12/24 09:39:11;;;;;;;13.68;3.13;;;20.40;99.90;;;;;;5016881;28;20037;-79
2022/12/24 09:41:49;;;;;;;20.30;3.70;;;20.20;99.90;;;;;;5034960;28;20104;-80
2022/12/24 09:44:30;;;;;;;23.42;4.55;;;20.40;99.90;;;;;;5034838;28;20034;-80
2022/12/24 09:47:00;;;;;;;17.35;4.68;;;20.30;99.90;;;;;;5034910;28;20025;-80
2022/12/24 09:49:38;;;;;;;17.38;4.53;;;20.40;99.90;;;;;;5034487;28;20476;-80
2022/12/24 09:52:11;;;;;;;18.20;3.83;;;20.30;99.90;;;;;;5015990;28;20052;-80
2022/12/24 09:54:43;;;;;;;29.17;4.40;;;20.20;99.90;;;;;;5016026;28;20038;-79
2022/12/24 09:57:40;;;;;;;19.50;3.40;;;20.10;99.90;;;;;;5033469;28;20314;-79
2022/12/24 10:00:29;;;;;;;15.52;3.10;;;20.20;99.90;;;;;;4937062;29;20050;-79
2022/12/24 10:02:56;;;;;;;11.63;3.53;;;19.80;99.90;;;;;;4944255;29;20035;-79
2022/12/24 10:05:59;;;;;;;16.40;4.07;;;19.50;99.90;;;;;;4933836;29;20114;-80
2022/12/24 10:08:54;;;;;;;12.82;3.40;;;19.50;99.90;;;;;;4934447;29;20036;-79
2022/12/24 10:11:45;;;;;;;11.13;3.45;;;19.60;99.90;;;;;;4913704;29;20035;-79
2022/12/24 10:14:33;;;;;;;13.52;3.72;;;19.80;99.90;;;;;;4933955;29;20034;-78
2022/12/24 10:17:30;;;;;;;15.25;3.95;;;19.80;99.90;;;;;;4933558;29;20047;-79
2022/12/24 10:20:18;;;;;;;16.17;3.95;;;20.00;99.90;;;;;;4933246;29;20173;-86
2022/12/24 10:23:06;;;;;;;15.82;4.53;;;20.10;99.90;;;;;;4934142;29;20121;-81
2022/12/24 10:25:59;;;;;;;17.05;4.25;;;19.90;99.90;;;;;;4933695;29;20031;-80
2022/12/24 10:28:38;;;;;;;17.48;3.75;;;20.10;99.90;;;;;;4928094;29;20036;-81
2022/12/24 10:31:08;;;;;;;18.95;4.10;;;20.20;99.90;;;;;;4933012;29;20048;-81
2022/12/24 10:33:41;;;;;;;21.52;4.68;;;20.20;99.90;;;;;;4933262;29;20459;-81
2022/12/24 10:36:15;;;;;;;15.77;4.40;;;20.40;99.90;;;;;;4954136;28;20101;-81
2022/12/24 10:38:41;;;;;;;16.05;4.03;;;20.50;99.90;;;;;;4990929;28;20052;-82
2022/12/24 10:41:07;;;;;;;17.13;4.05;;;19.70;99.90;;;;;;4991120;28;20117;-82
2022/12/24 10:43:35;;;;;;;;;;;19.60;99.90;;;;;;4975643;28;20034;-82
2022/12/24 10:46:18;;;;;;;19.33;4.10;;;19.60;99.90;;;;;;4990705;28;19905;-82
2022/12/24 10:49:05;;;;;;;12.90;3.75;;;19.60;99.90;;;;;;4991486;28;20308;-82
2022/12/24 10:52:26;;;;;;;15.65;4.03;;;20.00;99.90;;;;;;4974478;28;20034;-82
2022/12/24 10:55:17;;;;;;;15.23;4.47;;;20.50;99.90;;;;;;4993999;28;20469;-82
2022/12/24 10:58:01;;;;;;;15.40;3.95;;;20.60;99.90;;;;;;5012126;28;20105;-82
2022/12/24 11:00:28;;;;;;;12.80;3.45;;;20.90;99.90;;;;;;5013085;28;20073;-81
2022/12/24 11:03:13;;;;;;;16.40;4.35;;;21.30;99.90;;;;;;5012826;28;20084;-81
2022/12/24 11:05:40;;;;;;;15.80;3.88;;;21.40;99.90;;;;;;5013003;28;20385;-82
2022/12/24 11:08:16;;;;;;;17.33;4.45;;;21.40;99.90;;;;;;5010242;28;20044;-80
2022/12/24 11:11:26;;;;;;;16.40;4.75;;;21.30;99.90;;;;;;5011038;28;20034;-81
2022/12/24 11:13:56;;;;;;;14.23;3.88;;;21.00;99.90;;;;;;4933435;29;20032;-81
2022/12/24 11:16:31;;;;;;;14.50;4.15;;;20.90;99.90;;;;;;4933362;29;20483;-82
2022/12/24 11:19:04;;;;;;;14.13;4.03;;;20.80;99.90;;;;;;4933130;29;20373;-83
2022/12/24 11:21:57;;;;;;;16.50;4.25;;;20.60;99.90;;;;;;4917018;29;20115;-82
2022/12/24 11:24:59;;;;;;;16.50;4.22;;;20.20;99.90;;;;;;4933251;29;20040;-81
2022/12/24 11:27:48;;;;;;;15.85;4.35;;;20.30;99.90;;;;;;4933281;29;20032;-82
2022/12/24 11:30:14;;;;;;;14.15;3.60;;;20.40;99.90;;;;;;4934426;29;20079;-81
2022/12/24 11:32:48;;;;;;;12.95;4.03;;;20.00;99.90;;;;;;4936834;29;20393;-81
2022/12/24 11:35:20;;;;;;;16.13;4.30;;;20.10;99.90;;;;;;4936554;29;20078;-81
2022/12/24 11:38:06;;;;;;;16.50;4.13;;;20.00;99.90;;;;;;4947587;28;20203;-80
2022/12/24 11:40:47;;;;;;;18.40;4.50;;;19.80;99.90;;;;;;4949148;29;20032;-81
2022/12/24 11:43:19;;;;;;;18.08;5.00;;;19.70;99.90;;;;;;4936799;29;20116;-83
2022/12/24 11:45:56;;;;;;;20.52;5.45;;;19.70;99.90;;;;;;4997243;23;20061;-83
2022/12/24 11:48:43;;;;;;;16.85;4.78;;;20.20;99.90;;;;;;5016571;28;20022;-83
2022/12/24 11:51:30;;;;;;;18.08;4.68;;;20.60;99.90;;;;;;5014837;28;20042;-83
2022/12/24 11:56:52;;;;;;;13.37;4.50;;;20.90;99.90;;;;;;5036003;23;20128;-83
2022/12/24 11:59:25;;;;;;;17.70;4.38;;;21.10;99.90;;;;;;5018523;28;20041;-81
2022/12/24 12:02:16;;;;;;;15.63;4.10;;;21.10;99.90;;;;;;5036083;28;20026;-83
2022/12/24 12:04:49;;;;;;;20.67;4.65;;;20.90;99.90;;;;;;5036552;28;20029;-82
2022/12/24 12:07:28;;;;;;;17.08;4.25;;;20.70;99.90;;;;;;5036382;28;20049;-81
2022/12/24 12:10:16;;;;;;;16.98;4.38;;;20.90;99.90;;;;;;5036259;28;20029;-82
2022/12/24 12:13:20;;;;;;;17.70;4.50;;;21.10;99.90;;;;;;5036010;28;20035;-82
2022/12/24 12:15:54;;;;;;;16.73;4.75;;;21.00;99.90;;;;;;5033869;28;20243;-82
2022/12/24 12:18:35;;;;;;;13.15;4.00;;;20.90;99.90;;;;;;5036637;28;20044;-83
2022/12/24 12:21:31;;;;;;;18.67;4.20;;;20.90;99.90;;;;;;5035738;28;20172;-80
2022/12/24 12:24:27;;;;;;;14.80;4.28;;;21.10;99.90;;;;;;5036409;28;20029;-80
2022/12/24 12:27:15;;;;;;;16.25;4.70;;;21.30;99.90;;;;;;5027039;28;20046;-81
2022/12/24 12:30:23;;;;;;;13.65;4.35;;;21.10;99.90;;;;;;5036291;28;20021;-80
2022/12/24 12:33:14;;;;;;;16.63;5.00;;;20.90;99.90;;;;;;5034139;28;20033;-79
2022/12/24 12:35:42;;;;;;;14.68;4.50;;;20.80;99.90;;;;;;5024638;28;20033;-80
2022/12/24 12:38:30;;;;;;;14.95;5.10;;;20.80;99.90;;;;;;5035427;28;20045;-82
2022/12/24 12:41:21;;;;;;;13.32;4.15;;;20.70;99.90;;;;;;5035664;28;20036;-79
2022/12/24 12:44:15;;;;;;;14.35;4.10;;;20.70;99.90;;;;;;5040991;28;20075;-80
2022/12/24 12:47:03;;;;;;;20.05;3.97;;;20.90;99.90;;;;;;5028912;28;20073;-79
2022/12/24 12:50:07;;;;;;;13.77;4.20;;;20.80;99.90;;;;;;5034228;28;20025;-79
2022/12/24 12:53:18;;;;;;;16.15;4.05;;;20.60;99.90;;;;;;5005537;28;20057;-80
2022/12/24 12:56:00;;;;;;;12.50;3.88;;;20.50;99.90;;;;;;4993136;28;20054;-81
2022/12/24 12:58:32;;;;;;;12.57;3.17;;;20.80;99.90;;;;;;4993599;28;20047;-81
2022/12/24 13:01:30;;;;;;;13.43;3.53;;;20.80;99.90;;;;;;5001850;28;20107;-80
2022/12/24 13:04:16;;;;;;;15.02;3.72;;;20.90;99.90;;;;;;4999933;28;20542;-82
2022/12/24 13:06:56;;;;;;;16.25;3.75;;;21.10;99.90;;;;;;4999045;28;20500;-81
2022/12/24 13:09:47;;;;;;;15.00;3.10;;;20.80;99.90;;;;;;5011764;28;20034;-80
2022/12/24 13:12:49;;;;;;;13.52;3.22;;;20.90;99.90;;;;;;4992593;28;20125;-81
2022/12/24 13:15:39;;;;;;;12.82;3.33;;;21.00;99.90;;;;;;4991059;28;20049;-81
2022/12/24 13:18:18;;;;;;;12.00;3.47;;;21.00;99.90;;;;;;5009332;28;20037;-81
2022/12/24 13:20:49;;;;;;;13.07;3.88;;;21.20;99.90;;;;;;4993876;28;20031;-81
2022/12/24 13:23:23;;;;;;;11.68;3.20;;;21.50;99.90;;;;;;4977230;28;20065;-80
2022/12/24 13:25:55;;;;;;;14.05;3.83;;;21.50;99.90;;;;;;4993195;28;20033;-84
2022/12/24 13:28:23;;;;;;;11.07;3.50;;;21.50;99.90;;;;;;4993845;28;20034;-81
2022/12/24 13:31:13;;;;;;;11.13;3.42;;;21.70;99.90;;;;;;5032678;28;20045;-81
2022/12/24 13:33:52;;;;;;;11.50;3.20;;;21.50;99.90;;;;;;5032440;28;20039;-81
2022/12/24 13:36:19;;;;;;;15.88;3.95;;;21.40;99.90;;;;;;5032502;28;20041;-81
2022/12/24 13:38:57;;;;;;;17.27;4.32;;;21.70;99.90;;;;;;5032061;28;20377;-79
2022/12/24 13:41:37;;;;;;;19.75;4.25;;;21.80;99.90;;;;;;5054682;28;20052;-81
2022/12/24 13:44:09;;;;;;;23.05;4.05;;;21.90;99.90;;;;;;5054750;28;20112;-83
2022/12/24 13:47:09;;;;;;;18.80;4.38;;;21.90;99.90;;;;;;5052983;28;20498;-82
2022/12/24 13:49:35;;;;;;;16.20;4.00;;;22.00;99.90;;;;;;5041908;28;20087;-82